Details From BIKF - Keflavik Nas
To BIRK - Reykjavik
Flight Number -
Tags Generated
Created
Modified
Stats Distance 20 nm / 37 km
Max Altitude 0 ft / 0 m
Waypoints 2
Social Downloads 12
Likes 1
Share VATSIM

Download

Looking for another format? Having issues loading an existing format? Contact us
Advertisement - Login to hide

Notes

Generated

Route

BIKF BIRK

ID Type Via Altitude Latitude Longitude Leg Dist Tot Dist Heading (true) Name
O BIKF APT - 0 ft / 0 m 63.96448˚ -22.60545˚ - 0 nm - -
O BIRK APT - 0 ft / 0 m 64.12743˚ -21.94699˚ 19 nm 19 nm 60° / 61° -

Altitude Profile

Advertisement - Login to hide

BIKF

Details ICAO BIKF (KEF)
Name Keflavik
Region Iceland
Timezone Atlantic/Reykjavik (UTC+0.0)
Stats Elevation 170 ft / 52 m (AMSL)
Location 63.981612° -22.614563°
Runways 2
Magnetic Variation 14.069° W

METAR

BIKF 121200Z 14012KT 9999 VCSH FEW022CB BKN043 BKN070 03/00 Q0976

Decode

TAF

TAF BIKF 120759Z 1209/1309 17012KT 9999 SHRA SCT015 BKN025 TX02/1212Z TNM02/1306Z TEMPO 1212/1217 5000 SHRASN BKN010CB BECMG 1222/1301 09010KT NSW SCT030

Decode

Departure Runways

ID Width Length Bearing (true) Bearing (mag) Surface Threshold Offset Overrun Length
02 197 ft / 60 m 9,997 ft / 3,047 m 0.02° 14.09° Asphalt 0 ft / 0 m 492 ft / 150 m
11 197 ft / 60 m 10,022 ft / 3,055 m 89.97° 104.04° Asphalt 0 ft / 0 m 246 ft / 75 m
20 197 ft / 60 m 9,997 ft / 3,047 m 180.02° 194.09° Asphalt 0 ft / 0 m 98 ft / 30 m
29 197 ft / 60 m 10,022 ft / 3,055 m 270.02° 284.09° Asphalt 0 ft / 0 m 197 ft / 60 m

BIRK

Details ICAO BIRK (RKV)
Name Reykjavik
Region Iceland
Timezone Atlantic/Reykjavik (UTC+0.0)
Stats Elevation 47 ft / 14 m (AMSL)
Location 64.129644° -21.940609°
Runways 3
Magnetic Variation 13.776° W

METAR

BIRK 121200Z 12008KT 9999 FEW039 SCT050 02/M01 Q0977

Decode

TAF

TAF BIRK 120759Z 1209/1309 17012KT 9999 SHRA SCT020 BKN030 TX03/1211Z TNM01/1306Z TEMPO 1212/1217 5000 SHRASN BKN015CB BECMG 1221/1224 09010KT

Decode

Destination Runways

ID Width Length Bearing (true) Bearing (mag) Surface Threshold Offset Overrun Length
01 148 ft / 45 m 5,129 ft / 1,563 m 355.27° 9.05° Asphalt 262 ft / 80 m 0 ft / 0 m
06 98 ft / 30 m 2,800 ft / 853 m 46.35° 60.13° Asphalt 299 ft / 91 m 0 ft / 0 m
13 148 ft / 45 m 4,023 ft / 1,226 m 116.28° 130.06° Asphalt 0 ft / 0 m 0 ft / 0 m
19 148 ft / 45 m 5,129 ft / 1,563 m 175.27° 189.05° Asphalt 0 ft / 0 m 0 ft / 0 m
24 98 ft / 30 m 2,800 ft / 853 m 226.37° 240.15° Asphalt 0 ft / 0 m 0 ft / 0 m
31 148 ft / 45 m 4,023 ft / 1,226 m 296.30° 310.08° Asphalt 213 ft / 65 m 0 ft / 0 m

Approach Navaids

Runway Type Ident Frequency Range Bearing (true) Bearing (mag) Slope Elevation
13 Localiser IRE 109.10 MHz 18 nm / 33 km 116.29° 130.07° - 38 ft / 12 m (AMSL)
19 Localiser IRK 109.90 MHz 18 nm / 33 km 175.26° 189.04° - 20 ft / 6 m (AMSL)
19 Glidescope IRK 109.90 MHz 10 nm / 19 km 175.26° 189.04° 3.50° 48 ft / 15 m (AMSL)

Popular Alternatives